createdAt,value
2019-05-30T00:00:42.780Z,20.80
2019-05-30T00:03:17.114Z,20.80
2019-05-30T00:05:51.413Z,20.60
2019-05-30T00:08:25.602Z,20.50
2019-05-30T00:11:00.624Z,20.50
2019-05-30T00:13:34.549Z,20.50
2019-05-30T00:16:08.259Z,20.50
2019-05-30T00:18:42.086Z,20.60
2019-05-30T00:21:16.275Z,20.50
2019-05-30T00:23:50.670Z,20.20
2019-05-30T00:26:24.298Z,20.30
2019-05-30T00:28:58.615Z,20.40
2019-05-30T00:31:32.300Z,20.40
2019-05-30T00:34:06.539Z,20.40
2019-05-30T00:36:40.761Z,20.40
2019-05-30T00:39:14.998Z,20.30
2019-05-30T00:41:48.751Z,20.40
2019-05-30T00:44:22.995Z,20.40
2019-05-30T00:46:58.053Z,20.50
2019-05-30T00:49:32.651Z,20.70
2019-05-30T00:52:06.994Z,20.50
2019-05-30T00:54:41.215Z,20.50
2019-05-30T00:57:14.994Z,20.40
2019-05-30T00:59:48.719Z,20.50
2019-05-30T01:02:23.740Z,20.50
2019-05-30T01:04:58.854Z,20.40
2019-05-30T01:07:33.170Z,20.40
2019-05-30T01:10:07.451Z,20.20
2019-05-30T01:12:41.518Z,20.20
2019-05-30T01:15:15.835Z,20.10
2019-05-30T01:17:49.668Z,20.00
2019-05-30T01:20:23.756Z,20.20
2019-05-30T01:22:59.096Z,20.40
2019-05-30T01:25:33.751Z,20.50
2019-05-30T01:28:07.861Z,20.50
2019-05-30T01:30:41.550Z,20.50
2019-05-30T01:33:14.852Z,20.40
2019-05-30T01:35:48.199Z,20.40
2019-05-30T01:38:22.074Z,20.40
2019-05-30T01:40:56.236Z,20.20
2019-05-30T01:43:30.192Z,20.30
2019-05-30T01:46:04.384Z,19.90
2019-05-30T01:48:38.593Z,20.00
2019-05-30T01:51:12.843Z,19.90
2019-05-30T01:53:46.748Z,19.60
2019-05-30T01:56:20.940Z,19.50
2019-05-30T01:58:54.778Z,19.60
2019-05-30T02:01:29.002Z,19.40
2019-05-30T02:04:03.302Z,19.50
2019-05-30T02:06:38.285Z,19.30
2019-05-30T02:09:12.144Z,19.40
2019-05-30T02:11:46.313Z,19.40
2019-05-30T02:14:20.553Z,19.40
2019-05-30T02:16:54.644Z,19.30
2019-05-30T02:19:28.483Z,19.50
2019-05-30T02:22:02.304Z,19.50
2019-05-30T02:24:36.020Z,19.40
2019-05-30T02:27:10.408Z,19.40
2019-05-30T02:29:44.242Z,19.60
2019-05-30T02:32:17.277Z,19.50
2019-05-30T02:34:51.557Z,19.40
2019-05-30T02:37:25.355Z,19.50
2019-05-30T02:40:02.892Z,19.50
2019-05-30T02:42:35.390Z,19.50
2019-05-30T02:45:11.949Z,19.70
2019-05-30T02:47:45.036Z,19.70
2019-05-30T02:50:19.130Z,19.80
2019-05-30T02:52:53.025Z,19.70
2019-05-30T02:55:26.803Z,19.80
2019-05-30T02:58:01.348Z,19.90
2019-05-30T03:00:38.935Z,19.70
2019-05-30T03:03:14.598Z,19.70
2019-05-30T03:05:48.967Z,19.70
2019-05-30T03:08:22.770Z,19.70
2019-05-30T03:10:57.082Z,19.60
2019-05-30T03:13:30.386Z,19.60
2019-05-30T03:16:05.025Z,19.70
2019-05-30T03:18:39.573Z,19.80
2019-05-30T03:21:15.595Z,19.80
2019-05-30T03:23:49.832Z,19.70
2019-05-30T03:26:24.007Z,19.50
2019-05-30T03:28:57.826Z,19.40
2019-05-30T03:31:35.053Z,19.20
2019-05-30T03:34:18.031Z,19.30
2019-05-30T03:36:45.605Z,19.20
2019-05-30T03:39:19.509Z,19.30
2019-05-30T03:41:53.738Z,19.40
2019-05-30T03:44:28.043Z,19.40
2019-05-30T03:47:06.780Z,19.50
2019-05-30T03:49:46.021Z,19.60
2019-05-30T03:52:21.863Z,19.70
2019-05-30T03:54:55.756Z,19.90
2019-05-30T03:57:34.260Z,19.90
2019-05-30T04:00:16.024Z,19.80
2019-05-30T04:03:00.973Z,20.00
2019-05-30T04:05:41.742Z,20.10
2019-05-30T04:08:19.696Z,20.10
2019-05-30T04:10:58.442Z,19.80
2019-05-30T04:13:51.991Z,19.50
2019-05-30T04:16:26.212Z,19.60
2019-05-30T04:19:00.644Z,19.80
2019-05-30T04:21:34.282Z,19.80
2019-05-30T04:24:09.788Z,19.90
2019-05-30T04:26:44.710Z,20.00
2019-05-30T04:29:19.116Z,19.90
2019-05-30T04:31:53.366Z,20.10
2019-05-30T04:34:27.560Z,20.10
2019-05-30T04:37:02.442Z,19.90
2019-05-30T04:39:36.137Z,19.70
2019-05-30T04:42:11.340Z,19.90
2019-05-30T04:44:45.903Z,19.80
2019-05-30T04:47:20.792Z,19.50
2019-05-30T04:49:55.032Z,19.20
2019-05-30T04:52:29.273Z,19.00
2019-05-30T04:55:03.047Z,19.20
2019-05-30T04:57:36.753Z,19.30
2019-05-30T05:00:12.984Z,19.70
2019-05-30T05:02:46.416Z,20.10
2019-05-30T05:05:26.550Z,20.00
2019-05-30T05:07:56.501Z,19.80
2019-05-30T05:10:30.339Z,20.00
2019-05-30T05:13:04.632Z,20.30
2019-05-30T05:15:38.851Z,20.30
2019-05-30T05:18:12.914Z,20.20
2019-05-30T05:20:45.300Z,20.40
2019-05-30T05:23:19.398Z,20.40
2019-05-30T05:26:00.772Z,20.50
2019-05-30T05:28:27.214Z,20.50
2019-05-30T05:30:59.595Z,20.40
2019-05-30T05:33:32.645Z,20.40
2019-05-30T05:36:05.542Z,20.80
2019-05-30T05:38:37.633Z,21.00
2019-05-30T05:41:10.537Z,20.80
2019-05-30T05:43:42.523Z,20.60
2019-05-30T05:46:16.325Z,20.30
2019-05-30T05:48:49.441Z,20.40
2019-05-30T05:51:22.753Z,20.70
2019-05-30T05:53:55.485Z,20.80
2019-05-30T05:56:29.158Z,20.60
2019-05-30T05:59:02.278Z,20.50
2019-05-30T06:01:35.983Z,20.60
2019-05-30T06:04:13.238Z,20.80
2019-05-30T06:06:44.516Z,20.50
2019-05-30T06:09:18.717Z,20.60
2019-05-30T06:11:52.560Z,20.90
2019-05-30T06:14:28.037Z,20.50
2019-05-30T06:17:02.697Z,20.80
2019-05-30T06:19:45.939Z,21.10
2019-05-30T06:22:12.777Z,21.00
2019-05-30T06:24:47.596Z,21.20
2019-05-30T06:27:21.942Z,21.30
2019-05-30T06:29:55.251Z,21.30
2019-05-30T06:32:28.946Z,21.00
2019-05-30T06:35:03.144Z,20.80
2019-05-30T06:37:36.870Z,21.00
2019-05-30T06:40:11.400Z,21.10
2019-05-30T06:42:45.147Z,21.20
2019-05-30T06:45:20.862Z,21.00
2019-05-30T06:47:55.167Z,21.00
2019-05-30T06:50:29.249Z,20.80
2019-05-30T06:53:02.270Z,20.60
2019-05-30T06:55:35.488Z,20.70
2019-05-30T06:58:08.523Z,20.80
2019-05-30T07:00:43.772Z,20.50
2019-05-30T07:03:17.533Z,20.40
2019-05-30T07:05:51.523Z,21.00
2019-05-30T07:08:26.480Z,21.20
2019-05-30T07:11:00.215Z,21.00
2019-05-30T07:13:33.743Z,21.10
2019-05-30T07:16:08.318Z,21.10
2019-05-30T07:18:42.114Z,20.90
2019-05-30T07:21:15.412Z,20.90
2019-05-30T07:23:48.817Z,21.40
2019-05-30T07:26:23.733Z,21.40
2019-05-30T07:29:00.524Z,21.60
2019-05-30T07:31:34.264Z,22.00
2019-05-30T07:34:07.989Z,22.20
2019-05-30T07:36:42.147Z,22.50
2019-05-30T07:39:16.027Z,22.10
2019-05-30T07:42:05.334Z,22.10
2019-05-30T07:44:25.307Z,21.70
2019-05-30T07:46:59.503Z,21.30
2019-05-30T07:49:34.632Z,21.40
2019-05-30T07:52:09.074Z,21.40
2019-05-30T07:54:43.226Z,21.60
2019-05-30T07:57:17.610Z,22.00
2019-05-30T07:59:51.952Z,22.20
2019-05-30T08:02:27.406Z,22.40
2019-05-30T08:05:01.504Z,22.60
2019-05-30T08:07:35.176Z,22.10
2019-05-30T08:10:09.030Z,21.90
2019-05-30T08:12:43.203Z,21.70
2019-05-30T08:15:17.244Z,21.80
2019-05-30T08:17:51.449Z,21.90
2019-05-30T08:20:24.460Z,22.10
2019-05-30T08:22:58.751Z,21.90
2019-05-30T08:25:32.553Z,22.40
2019-05-30T08:28:06.373Z,22.60
2019-05-30T08:30:38.842Z,22.60
2019-05-30T08:33:13.078Z,22.30
2019-05-30T08:35:49.790Z,22.00
2019-05-30T08:38:22.595Z,22.10
2019-05-30T08:40:55.807Z,21.90
2019-05-30T08:43:29.647Z,21.80
2019-05-30T08:46:03.863Z,21.90
2019-05-30T08:48:38.212Z,21.90
2019-05-30T08:51:12.660Z,22.40
2019-05-30T08:53:46.988Z,22.20
2019-05-30T08:56:21.227Z,22.20
2019-05-30T08:58:55.420Z,22.40
2019-05-30T09:01:29.205Z,22.40
2019-05-30T09:04:02.611Z,22.50
2019-05-30T09:06:35.921Z,22.60
2019-05-30T09:09:10.239Z,22.60
2019-05-30T09:11:44.579Z,22.50
2019-05-30T09:14:18.766Z,22.70
2019-05-30T09:16:53.021Z,22.40
2019-05-30T09:19:26.788Z,22.40
2019-05-30T09:22:00.597Z,22.60
2019-05-30T09:24:34.729Z,22.60
2019-05-30T09:27:08.235Z,22.60
2019-05-30T09:29:42.909Z,22.30
2019-05-30T09:32:17.260Z,22.30
2019-05-30T09:34:51.572Z,23.00
2019-05-30T09:37:25.816Z,23.30
2019-05-30T09:40:00.031Z,23.40
2019-05-30T09:42:34.096Z,23.20
2019-05-30T09:45:09.939Z,22.80
2019-05-30T09:47:45.167Z,23.30
2019-05-30T09:50:18.594Z,22.90
2019-05-30T09:52:52.869Z,23.00
2019-05-30T09:55:26.126Z,22.90
2019-05-30T09:57:58.973Z,23.00
2019-05-30T10:00:34.357Z,23.50
2019-05-30T10:03:09.211Z,23.30
2019-05-30T10:05:44.791Z,22.90
2019-05-30T10:08:18.541Z,23.10
2019-05-30T10:10:53.519Z,22.90
2019-05-30T10:13:27.898Z,22.20
2019-05-30T10:16:02.242Z,22.70
2019-05-30T10:18:36.756Z,23.20
2019-05-30T10:21:10.031Z,23.10
2019-05-30T10:23:45.715Z,23.00
2019-05-30T10:26:19.144Z,23.30
2019-05-30T10:28:53.324Z,23.00
2019-05-30T10:31:27.708Z,23.10
2019-05-30T10:34:01.821Z,23.50
2019-05-30T10:36:43.829Z,24.10
2019-05-30T10:39:10.901Z,24.00
2019-05-30T10:41:44.605Z,24.00
2019-05-30T10:44:20.355Z,23.80
2019-05-30T10:46:54.709Z,23.70
2019-05-30T10:49:34.670Z,24.00
2019-05-30T10:52:04.643Z,24.20
2019-05-30T10:54:39.785Z,24.40
2019-05-30T10:57:13.993Z,24.70
2019-05-30T10:59:48.902Z,24.50
2019-05-30T11:02:24.169Z,24.60
2019-05-30T11:04:57.943Z,24.70
2019-05-30T11:08:00.568Z,24.50
2019-05-30T11:10:35.674Z,24.80
2019-05-30T11:13:10.415Z,24.90
2019-05-30T11:15:44.526Z,24.90
2019-05-30T11:18:18.983Z,25.30
2019-05-30T11:20:54.069Z,25.00
2019-05-30T11:23:28.363Z,25.50
2019-05-30T11:26:02.701Z,25.00
2019-05-30T11:28:36.471Z,25.40
2019-05-30T11:31:10.314Z,25.50
2019-05-30T11:33:44.523Z,25.60
2019-05-30T11:36:18.729Z,25.60
2019-05-30T11:38:53.670Z,25.80
2019-05-30T11:41:27.810Z,25.80
2019-05-30T11:44:04.127Z,25.30
2019-05-30T11:46:37.477Z,25.90
2019-05-30T11:49:11.549Z,26.20
2019-05-30T11:51:45.408Z,26.30
2019-05-30T11:54:19.567Z,26.50
2019-05-30T11:56:54.021Z,26.50
2019-05-30T11:59:26.807Z,26.80
2019-05-30T12:02:00.533Z,27.10
2019-05-30T12:04:34.228Z,27.50
2019-05-30T12:07:07.522Z,27.60
2019-05-30T12:09:40.853Z,28.00
2019-05-30T12:12:14.760Z,28.40
2019-05-30T12:14:47.174Z,28.50
2019-05-30T12:17:19.229Z,28.20
2019-05-30T12:19:51.431Z,28.50
2019-05-30T12:22:25.344Z,28.70
2019-05-30T12:24:59.788Z,29.00
2019-05-30T12:27:34.068Z,29.00
2019-05-30T12:30:07.081Z,28.90
2019-05-30T12:32:39.950Z,28.80
2019-05-30T12:35:14.753Z,29.00
2019-05-30T12:37:55.045Z,29.00
2019-05-30T12:40:23.225Z,28.80
2019-05-30T12:42:58.934Z,28.90
2019-05-30T12:45:30.663Z,28.80
2019-05-30T12:48:04.633Z,28.80
2019-05-30T12:50:38.214Z,28.70
2019-05-30T12:53:12.419Z,28.80
2019-05-30T12:55:46.054Z,28.40
2019-05-30T12:58:19.948Z,28.60
2019-05-30T13:00:54.658Z,28.60
2019-05-30T13:03:28.027Z,28.60
2019-05-30T13:06:03.400Z,28.80
2019-05-30T13:08:37.958Z,29.00
2019-05-30T13:11:11.664Z,28.80
2019-05-30T13:13:45.537Z,28.40
2019-05-30T13:16:19.788Z,27.80
2019-05-30T13:18:53.564Z,28.10
2019-05-30T13:21:27.683Z,27.80
2019-05-30T13:24:01.881Z,27.90
2019-05-30T13:26:34.258Z,28.00
2019-05-30T13:29:06.744Z,28.10
2019-05-30T13:31:40.140Z,28.00
2019-05-30T13:34:12.521Z,28.30
2019-05-30T13:36:44.456Z,28.10
2019-05-30T13:39:17.007Z,28.20
2019-05-30T13:41:50.201Z,28.20
2019-05-30T13:44:23.869Z,28.50
2019-05-30T13:46:58.408Z,28.50
2019-05-30T13:49:32.723Z,28.50
2019-05-30T13:52:07.275Z,28.90
2019-05-30T13:54:41.584Z,29.50
2019-05-30T13:57:15.338Z,29.60
2019-05-30T13:59:49.097Z,29.50
2019-05-30T14:02:22.980Z,29.10
2019-05-30T14:04:57.167Z,29.20
2019-05-30T14:07:30.968Z,29.50
2019-05-30T14:10:04.692Z,29.80
2019-05-30T14:12:37.972Z,29.50
2019-05-30T14:15:13.917Z,29.40
2019-05-30T14:17:48.012Z,28.90
2019-05-30T14:20:23.278Z,29.50
2019-05-30T14:22:57.088Z,30.30
2019-05-30T14:25:30.793Z,30.60
2019-05-30T14:28:05.588Z,31.00
2019-05-30T14:30:40.147Z,31.40
2019-05-30T14:33:14.499Z,31.40
2019-05-30T14:35:48.224Z,31.70
2019-05-30T14:38:22.385Z,32.20
2019-05-30T14:40:55.885Z,32.20
2019-05-30T14:43:30.228Z,32.20
2019-05-30T14:46:04.346Z,32.20
2019-05-30T14:48:37.266Z,32.20
2019-05-30T14:51:12.847Z,32.40
2019-05-30T14:53:47.030Z,32.50
2019-05-30T14:56:20.351Z,32.80
2019-05-30T14:58:54.117Z,33.00
2019-05-30T15:01:27.456Z,33.30
2019-05-30T15:04:01.709Z,33.40
2019-05-30T15:06:36.592Z,33.70
2019-05-30T15:09:17.723Z,34.00
2019-05-30T15:11:46.788Z,33.90
2019-05-30T15:14:21.741Z,33.90
2019-05-30T15:16:55.466Z,33.70
2019-05-30T15:19:48.020Z,33.80
2019-05-30T15:22:22.310Z,33.80
2019-05-30T15:24:56.014Z,33.60
2019-05-30T15:27:30.287Z,33.80
2019-05-30T15:30:04.397Z,34.00
2019-05-30T15:32:38.659Z,34.20
2019-05-30T15:35:12.828Z,33.90
2019-05-30T15:37:47.154Z,33.90
2019-05-30T15:40:22.612Z,33.50
2019-05-30T15:42:56.692Z,33.70
2019-05-30T15:45:31.033Z,33.70
2019-05-30T15:48:04.122Z,33.90
2019-05-30T15:50:38.228Z,33.70
2019-05-30T15:53:13.116Z,33.80
2019-05-30T15:55:47.414Z,33.80
2019-05-30T15:58:21.628Z,33.90
2019-05-30T16:00:55.414Z,33.80
2019-05-30T16:03:30.486Z,33.80
2019-05-30T16:06:03.687Z,34.00
2019-05-30T16:08:37.963Z,34.00
2019-05-30T16:11:12.741Z,33.80
2019-05-30T16:13:46.717Z,33.70
2019-05-30T16:16:33.783Z,33.90
2019-05-30T16:18:56.227Z,33.90
2019-05-30T16:21:30.128Z,33.90
2019-05-30T16:24:04.995Z,34.00
2019-05-30T16:26:38.422Z,33.60
2019-05-30T16:29:11.941Z,33.40
2019-05-30T16:31:46.214Z,33.40
2019-05-30T16:34:20.312Z,33.20
2019-05-30T16:36:54.258Z,33.20
2019-05-30T16:39:28.351Z,33.10
2019-05-30T16:42:02.163Z,32.90
2019-05-30T16:44:35.964Z,32.80
2019-05-30T16:47:09.678Z,33.10
2019-05-30T16:49:43.477Z,33.00
2019-05-30T16:52:19.126Z,32.70
2019-05-30T16:54:56.681Z,32.50
2019-05-30T16:57:28.672Z,31.40
2019-05-30T17:00:02.406Z,30.90
2019-05-30T17:02:36.633Z,31.10
2019-05-30T17:05:10.236Z,31.40
2019-05-30T17:07:44.310Z,31.70
2019-05-30T17:10:27.685Z,31.70
2019-05-30T17:12:55.321Z,31.80
2019-05-30T17:15:29.608Z,32.10
2019-05-30T17:18:04.148Z,31.70
2019-05-30T17:20:39.293Z,31.60
2019-05-30T17:23:13.237Z,31.50
2019-05-30T17:25:49.364Z,32.40
2019-05-30T17:28:24.352Z,32.90
2019-05-30T17:30:57.676Z,33.00
2019-05-30T17:33:31.557Z,33.00
2019-05-30T17:36:05.827Z,33.10
2019-05-30T17:38:40.041Z,33.00
2019-05-30T17:41:13.430Z,33.10
2019-05-30T17:43:47.243Z,33.50
2019-05-30T17:46:21.438Z,33.60
2019-05-30T17:48:55.224Z,33.30
2019-05-30T17:51:30.035Z,33.30
2019-05-30T17:54:04.326Z,33.30
2019-05-30T17:56:38.226Z,33.00
2019-05-30T17:59:11.571Z,33.30
2019-05-30T18:01:44.524Z,33.00
2019-05-30T18:04:16.944Z,33.00
2019-05-30T18:06:49.006Z,32.70
2019-05-30T18:09:22.863Z,32.80
2019-05-30T18:11:56.208Z,32.90
2019-05-30T18:14:29.252Z,32.80
2019-05-30T18:17:02.269Z,32.60
2019-05-30T18:19:36.513Z,32.10
2019-05-30T18:22:10.362Z,31.50
2019-05-30T18:24:44.118Z,31.00
2019-05-30T18:27:17.853Z,30.60
2019-05-30T18:29:52.099Z,30.60
2019-05-30T18:32:26.294Z,30.30
2019-05-30T18:34:59.606Z,30.10
2019-05-30T18:37:33.922Z,30.50
2019-05-30T18:40:07.914Z,30.30
2019-05-30T18:42:41.366Z,30.60
2019-05-30T18:45:14.605Z,30.80
2019-05-30T18:47:48.388Z,30.80
2019-05-30T18:50:20.974Z,30.80
2019-05-30T18:52:53.483Z,30.80
2019-05-30T18:55:26.554Z,30.90
2019-05-30T18:57:59.607Z,30.80
2019-05-30T19:00:33.212Z,30.40
2019-05-30T19:03:08.044Z,30.10
2019-05-30T19:05:41.560Z,29.50
2019-05-30T19:08:14.500Z,29.60
2019-05-30T19:10:47.493Z,29.50
2019-05-30T19:13:20.451Z,29.50
2019-05-30T19:15:54.985Z,29.80
2019-05-30T19:18:27.866Z,29.50
2019-05-30T19:21:01.233Z,29.50
2019-05-30T19:23:37.891Z,29.50
2019-05-30T19:26:11.277Z,29.40
2019-05-30T19:28:44.541Z,29.00
2019-05-30T19:31:19.221Z,29.50
2019-05-30T19:33:52.655Z,29.60
2019-05-30T19:36:26.832Z,29.80
2019-05-30T19:38:59.423Z,29.70
2019-05-30T19:41:48.530Z,29.80
2019-05-30T19:44:07.039Z,29.80
2019-05-30T19:46:40.363Z,29.70
2019-05-30T19:49:12.891Z,29.60
2019-05-30T19:51:45.409Z,29.50
2019-05-30T19:54:19.056Z,29.50
2019-05-30T19:56:52.469Z,29.50
2019-05-30T19:59:25.821Z,29.40
2019-05-30T20:01:58.319Z,29.10
2019-05-30T20:04:30.305Z,29.10
2019-05-30T20:07:03.331Z,29.10
2019-05-30T20:09:35.292Z,29.10
2019-05-30T20:12:09.199Z,29.10
2019-05-30T20:14:42.568Z,28.90
2019-05-30T20:17:15.619Z,28.80
2019-05-30T20:19:50.004Z,28.50
2019-05-30T20:22:22.015Z,28.60
2019-05-30T20:24:54.057Z,28.70
2019-05-30T20:27:27.658Z,28.70
2019-05-30T20:30:01.053Z,28.80
2019-05-30T20:32:34.412Z,28.80
2019-05-30T20:35:07.470Z,28.80
2019-05-30T20:37:40.688Z,28.70
2019-05-30T20:40:15.907Z,28.60
2019-05-30T20:42:48.782Z,28.60
2019-05-30T20:45:21.872Z,28.20
2019-05-30T20:47:54.707Z,28.30
2019-05-30T20:50:27.828Z,28.40
2019-05-30T20:53:02.223Z,28.30
2019-05-30T20:55:36.407Z,28.20
2019-05-30T20:58:09.169Z,28.20
2019-05-30T21:00:43.852Z,28.30
2019-05-30T21:03:18.446Z,28.20
2019-05-30T21:05:52.460Z,28.20
2019-05-30T21:08:27.671Z,28.20
2019-05-30T21:11:02.735Z,28.00
2019-05-30T21:13:38.197Z,27.60
2019-05-30T21:16:14.769Z,27.70
2019-05-30T21:18:50.952Z,27.70
2019-05-30T21:21:25.118Z,27.70
2019-05-30T21:23:59.217Z,27.60
2019-05-30T21:26:32.992Z,27.60
2019-05-30T21:29:06.811Z,27.50
2019-05-30T21:31:41.492Z,27.30
2019-05-30T21:34:15.727Z,27.40
2019-05-30T21:36:49.415Z,27.50
2019-05-30T21:39:23.619Z,27.30
2019-05-30T21:41:57.830Z,27.20
2019-05-30T21:44:32.066Z,26.90
2019-05-30T21:47:06.374Z,26.90
2019-05-30T21:49:40.910Z,26.90
2019-05-30T21:52:15.332Z,27.10
2019-05-30T21:54:50.152Z,27.00
2019-05-30T21:57:24.698Z,26.90
2019-05-30T21:59:59.008Z,27.10
2019-05-30T22:02:33.316Z,27.20
2019-05-30T22:05:06.801Z,27.00
2019-05-30T22:07:40.951Z,26.90
2019-05-30T22:10:14.703Z,27.10
2019-05-30T22:12:49.460Z,26.50
2019-05-30T22:15:24.280Z,26.30
2019-05-30T22:17:57.664Z,26.70
2019-05-30T22:20:31.369Z,26.40
2019-05-30T22:23:05.595Z,26.60
2019-05-30T22:25:39.808Z,26.60
2019-05-30T22:28:12.698Z,26.70
2019-05-30T22:30:46.418Z,26.90
2019-05-30T22:33:20.137Z,26.90
2019-05-30T22:35:53.887Z,26.60
2019-05-30T22:38:28.250Z,26.60
2019-05-30T22:41:02.029Z,26.50
2019-05-30T22:43:35.847Z,26.60
2019-05-30T22:46:09.521Z,26.80
2019-05-30T22:48:44.401Z,26.90
2019-05-30T22:51:18.831Z,26.60
2019-05-30T22:53:53.230Z,26.30
2019-05-30T22:56:27.634Z,26.10
2019-05-30T22:59:01.874Z,26.40
2019-05-30T23:01:35.532Z,26.50
2019-05-30T23:04:09.776Z,26.30
2019-05-30T23:06:43.563Z,26.50
2019-05-30T23:09:16.902Z,26.30
2019-05-30T23:11:51.664Z,26.40
2019-05-30T23:14:25.814Z,26.50
2019-05-30T23:16:59.618Z,26.50
2019-05-30T23:19:33.240Z,26.10
2019-05-30T23:22:06.520Z,26.20
2019-05-30T23:24:40.538Z,25.80
2019-05-30T23:27:14.421Z,25.40
2019-05-30T23:29:48.015Z,25.30
2019-05-30T23:32:22.233Z,25.60
2019-05-30T23:34:56.487Z,25.50
2019-05-30T23:37:30.333Z,25.60
2019-05-30T23:40:03.667Z,25.80
2019-05-30T23:42:37.840Z,26.20
2019-05-30T23:45:12.515Z,25.40
2019-05-30T23:47:46.755Z,25.10
2019-05-30T23:50:21.136Z,25.20
2019-05-30T23:52:56.258Z,25.10
2019-05-30T23:55:30.077Z,25.00
2019-05-30T23:58:04.211Z,25.50
